createdAt,value
2018-05-23T00:02:09.619Z,16.75
2018-05-23T00:04:37.623Z,16.70
2018-05-23T00:07:05.650Z,16.77
2018-05-23T00:09:33.975Z,16.73
2018-05-23T00:12:02.034Z,16.68
2018-05-23T00:14:30.229Z,16.64
2018-05-23T00:16:58.257Z,16.69
2018-05-23T00:19:26.273Z,16.67
2018-05-23T00:21:54.975Z,16.64
2018-05-23T00:24:22.980Z,16.52
2018-05-23T00:26:51.023Z,16.30
2018-05-23T00:29:19.191Z,16.23
2018-05-23T00:31:47.227Z,16.38
2018-05-23T00:34:15.244Z,16.53
2018-05-23T00:36:43.271Z,16.58
2018-05-23T00:39:11.280Z,16.63
2018-05-23T00:41:39.612Z,16.64
2018-05-23T00:44:07.619Z,16.60
2018-05-23T00:46:35.703Z,16.59
2018-05-23T00:49:03.732Z,16.62
2018-05-23T00:51:31.756Z,16.54
2018-05-23T00:54:00.620Z,16.58
2018-05-23T00:56:28.634Z,16.57
2018-05-23T00:58:56.663Z,16.51
2018-05-23T01:01:24.824Z,16.57
2018-05-23T01:03:53.267Z,16.50
2018-05-23T01:06:21.452Z,16.44
2018-05-23T01:08:49.494Z,16.37
2018-05-23T01:11:17.499Z,16.27
2018-05-23T01:13:45.523Z,16.30
2018-05-23T01:16:13.640Z,16.46
2018-05-23T01:18:41.670Z,16.45
2018-05-23T01:21:09.670Z,16.46
2018-05-23T01:23:37.700Z,16.41
2018-05-23T01:26:06.468Z,16.45
2018-05-23T01:28:34.576Z,16.39
2018-05-23T01:31:02.591Z,16.39
2018-05-23T01:33:30.607Z,16.28
2018-05-23T01:35:58.615Z,16.25
2018-05-23T01:38:26.672Z,16.33
2018-05-23T01:40:54.783Z,16.34
2018-05-23T01:43:22.924Z,16.24
2018-05-23T01:45:51.888Z,16.20
2018-05-23T01:48:20.304Z,16.27
2018-05-23T01:50:48.327Z,16.21
2018-05-23T01:53:16.358Z,16.29
2018-05-23T01:55:44.517Z,16.13
2018-05-23T01:58:12.560Z,16.16
2018-05-23T02:00:40.847Z,16.18
2018-05-23T02:03:08.885Z,15.84
2018-05-23T02:05:36.896Z,15.58
2018-05-23T02:08:05.061Z,15.54
2018-05-23T02:10:33.070Z,15.42
2018-05-23T02:13:01.097Z,15.36
2018-05-23T02:15:29.162Z,15.40
2018-05-23T02:17:57.298Z,15.69
2018-05-23T02:20:25.302Z,15.84
2018-05-23T02:22:53.487Z,15.84
2018-05-23T02:25:21.501Z,15.93
2018-05-23T02:27:49.775Z,15.82
2018-05-23T02:30:17.784Z,15.85
2018-05-23T02:32:45.791Z,15.83
2018-05-23T02:35:14.555Z,15.86
2018-05-23T02:37:43.228Z,15.77
2018-05-23T02:40:11.416Z,15.73
2018-05-23T02:42:39.417Z,15.73
2018-05-23T02:45:07.556Z,15.74
2018-05-23T02:47:35.564Z,15.71
2018-05-23T02:50:03.685Z,15.68
2018-05-23T02:52:31.691Z,15.75
2018-05-23T02:54:59.895Z,15.72
2018-05-23T02:57:28.074Z,15.73
2018-05-23T02:59:56.091Z,15.69
2018-05-23T03:02:24.369Z,15.69
2018-05-23T03:04:52.674Z,15.65
2018-05-23T03:07:20.672Z,15.54
2018-05-23T03:09:48.711Z,15.58
2018-05-23T03:12:16.735Z,15.59
2018-05-23T03:14:44.756Z,15.43
2018-05-23T03:17:12.772Z,15.32
2018-05-23T03:19:40.795Z,15.45
2018-05-23T03:22:08.801Z,15.60
2018-05-23T03:24:36.827Z,15.60
2018-05-23T03:27:04.845Z,15.60
2018-05-23T03:29:32.863Z,15.69
2018-05-23T03:32:00.877Z,15.72
2018-05-23T03:34:28.915Z,15.76
2018-05-23T03:36:57.166Z,15.72
2018-05-23T03:39:25.184Z,15.73
2018-05-23T03:41:53.768Z,15.67
2018-05-23T03:44:22.352Z,15.64
2018-05-23T03:46:50.362Z,15.71
2018-05-23T03:49:18.395Z,15.80
2018-05-23T03:51:46.399Z,15.73
2018-05-23T03:54:14.981Z,15.68
2018-05-23T03:56:42.987Z,15.57
2018-05-23T03:59:11.011Z,15.60
2018-05-23T04:01:50.857Z,15.66
2018-05-23T04:04:30.919Z,15.80
2018-05-23T04:09:58.867Z,15.86
2018-05-23T04:12:26.874Z,15.84
2018-05-23T04:14:55.051Z,15.79
2018-05-23T04:17:23.062Z,15.91
2018-05-23T04:19:51.087Z,15.96
2018-05-23T04:22:19.768Z,15.82
2018-05-23T04:24:48.130Z,15.72
2018-05-23T04:27:17.096Z,15.85
2018-05-23T04:29:45.423Z,15.95
2018-05-23T04:32:13.643Z,15.89
2018-05-23T04:34:41.668Z,15.88
2018-05-23T04:37:09.680Z,15.82
2018-05-23T04:39:37.859Z,15.81
2018-05-23T04:42:05.950Z,15.67
2018-05-23T04:44:34.164Z,15.92
2018-05-23T04:47:02.195Z,15.99
2018-05-23T04:49:30.236Z,16.05
2018-05-23T04:51:58.231Z,15.98
2018-05-23T04:54:26.259Z,15.89
2018-05-23T04:56:54.282Z,15.93
2018-05-23T04:59:22.843Z,16.06
2018-05-23T05:01:51.107Z,16.14
2018-05-23T05:04:19.115Z,16.08
2018-05-23T05:06:47.309Z,16.07
2018-05-23T05:09:15.591Z,16.06
2018-05-23T05:11:43.651Z,16.20
2018-05-23T05:14:11.805Z,16.14
2018-05-23T05:16:39.884Z,16.20
2018-05-23T05:19:08.077Z,16.28
2018-05-23T05:21:36.093Z,16.29
2018-05-23T05:24:04.104Z,16.29
2018-05-23T05:26:32.284Z,16.37
2018-05-23T05:29:00.513Z,16.40
2018-05-23T05:31:28.743Z,16.37
2018-05-23T05:33:56.766Z,16.42
2018-05-23T05:36:24.808Z,16.46
2018-05-23T05:38:52.825Z,16.50
2018-05-23T05:41:20.868Z,16.65
2018-05-23T05:43:48.884Z,16.58
2018-05-23T05:46:16.910Z,16.56
2018-05-23T05:48:48.281Z,16.71
2018-05-23T05:51:16.301Z,16.80
2018-05-23T05:53:44.400Z,16.86
2018-05-23T05:56:12.366Z,16.89
2018-05-23T05:58:40.372Z,16.85
2018-05-23T06:01:08.564Z,17.03
2018-05-23T06:03:36.736Z,17.05
2018-05-23T06:06:04.777Z,17.10
2018-05-23T06:08:32.827Z,17.06
2018-05-23T06:11:00.847Z,17.06
2018-05-23T06:13:29.019Z,17.06
2018-05-23T06:15:57.044Z,17.22
2018-05-23T06:18:25.055Z,17.45
2018-05-23T06:20:53.335Z,17.38
2018-05-23T06:23:21.543Z,17.12
2018-05-23T06:25:49.571Z,16.89
2018-05-23T06:28:17.575Z,17.20
2018-05-23T06:30:45.724Z,17.45
2018-05-23T06:33:13.723Z,17.43
2018-05-23T06:35:41.751Z,17.35
2018-05-23T06:38:09.790Z,16.88
2018-05-23T06:40:37.808Z,16.87
2018-05-23T06:43:05.974Z,17.19
2018-05-23T06:45:33.988Z,17.31
2018-05-23T06:48:02.173Z,17.54
2018-05-23T06:50:31.078Z,17.59
2018-05-23T06:52:59.098Z,17.59
2018-05-23T06:55:27.172Z,17.59
2018-05-23T06:57:55.197Z,17.64
2018-05-23T07:00:23.334Z,17.50
2018-05-23T07:02:51.352Z,17.38
2018-05-23T07:05:19.766Z,17.53
2018-05-23T07:07:47.843Z,17.77
2018-05-23T07:10:15.873Z,17.72
2018-05-23T07:12:44.160Z,17.91
2018-05-23T07:15:12.162Z,17.88
2018-05-23T07:17:40.202Z,18.07
2018-05-23T07:20:09.051Z,18.02
2018-05-23T07:22:37.067Z,17.99
2018-05-23T07:25:05.093Z,17.97
2018-05-23T07:27:33.115Z,18.61
2018-05-23T07:30:01.376Z,18.74
2018-05-23T07:32:29.410Z,18.77
2018-05-23T07:34:57.421Z,18.64
2018-05-23T07:37:25.447Z,18.69
2018-05-23T07:39:53.451Z,18.81
2018-05-23T07:42:21.490Z,18.61
2018-05-23T07:44:49.508Z,18.46
2018-05-23T07:47:17.531Z,18.51
2018-05-23T07:49:45.540Z,18.71
2018-05-23T07:52:13.559Z,18.81
2018-05-23T07:54:41.684Z,18.91
2018-05-23T07:57:09.699Z,18.81
2018-05-23T07:59:37.819Z,18.69
2018-05-23T08:02:05.847Z,18.85
2018-05-23T08:04:33.961Z,18.82
2018-05-23T08:07:02.029Z,18.93
2018-05-23T08:09:30.311Z,18.81
2018-05-23T08:11:58.573Z,19.08
2018-05-23T08:14:26.864Z,19.16
2018-05-23T08:16:55.614Z,19.04
2018-05-23T08:19:23.640Z,19.55
2018-05-23T08:21:51.643Z,19.62
2018-05-23T08:24:19.888Z,18.98
2018-05-23T08:26:47.832Z,18.99
2018-05-23T08:29:16.268Z,19.67
2018-05-23T08:31:44.287Z,20.19
2018-05-23T08:34:12.305Z,20.67
2018-05-23T08:36:41.187Z,21.40
2018-05-23T08:39:09.459Z,20.58
2018-05-23T08:41:37.482Z,20.80
2018-05-23T08:44:05.500Z,21.81
2018-05-23T08:46:33.559Z,21.01
2018-05-23T08:49:01.812Z,20.11
2018-05-23T08:51:30.095Z,19.98
2018-05-23T08:53:58.119Z,19.47
2018-05-23T08:56:26.175Z,19.54
2018-05-23T08:58:54.219Z,19.65
2018-05-23T09:01:22.269Z,19.71
2018-05-23T09:03:50.532Z,19.42
2018-05-23T09:06:18.551Z,19.96
2018-05-23T09:08:48.967Z,19.85
2018-05-23T09:11:16.977Z,19.31
2018-05-23T09:13:45.082Z,19.49
2018-05-23T09:16:13.095Z,19.61
2018-05-23T09:18:41.323Z,19.95
2018-05-23T09:21:09.583Z,20.66
2018-05-23T09:23:37.616Z,20.88
2018-05-23T09:26:06.097Z,20.89
2018-05-23T09:28:34.124Z,20.56
2018-05-23T09:31:02.394Z,20.86
2018-05-23T09:33:30.873Z,19.97
2018-05-23T09:35:58.875Z,19.78
2018-05-23T09:38:26.967Z,20.20
2018-05-23T09:40:54.977Z,20.02
2018-05-23T09:43:23.003Z,20.08
2018-05-23T09:45:51.010Z,20.09
2018-05-23T09:48:19.112Z,20.60
2018-05-23T09:50:47.416Z,20.88
2018-05-23T09:53:15.661Z,20.84
2018-05-23T09:55:43.655Z,20.77
2018-05-23T09:58:11.648Z,20.92
2018-05-23T10:00:39.671Z,21.02
2018-05-23T10:03:07.678Z,21.13
2018-05-23T10:05:35.710Z,21.16
2018-05-23T10:08:03.962Z,21.27
2018-05-23T10:10:32.030Z,20.99
2018-05-23T10:13:00.500Z,21.07
2018-05-23T10:15:28.529Z,21.23
2018-05-23T10:17:56.536Z,21.15
2018-05-23T10:20:24.556Z,21.34
2018-05-23T10:22:53.216Z,21.19
2018-05-23T10:25:21.531Z,21.03
2018-05-23T10:27:49.569Z,21.12
2018-05-23T10:30:17.835Z,20.97
2018-05-23T10:32:46.827Z,20.92
2018-05-23T10:35:14.923Z,20.84
2018-05-23T10:37:42.924Z,20.84
2018-05-23T10:40:10.937Z,20.74
2018-05-23T10:42:38.920Z,20.64
2018-05-23T10:45:07.209Z,20.62
2018-05-23T10:47:35.196Z,20.40
2018-05-23T10:50:03.220Z,20.27
2018-05-23T10:52:31.215Z,20.31
2018-05-23T10:54:59.234Z,20.30
2018-05-23T10:57:27.240Z,20.29
2018-05-23T10:59:55.254Z,20.27
2018-05-23T11:02:23.251Z,20.22
2018-05-23T11:04:51.539Z,20.14
2018-05-23T11:07:19.591Z,20.17
2018-05-23T11:09:47.608Z,20.19
2018-05-23T11:12:15.623Z,20.25
2018-05-23T11:14:43.908Z,20.17
2018-05-23T11:17:12.101Z,20.23
2018-05-23T11:19:40.121Z,20.08
2018-05-23T11:22:08.123Z,20.05
2018-05-23T11:24:36.138Z,20.16
2018-05-23T11:27:04.132Z,19.99
2018-05-23T11:29:32.147Z,19.97
2018-05-23T11:32:00.152Z,19.95
2018-05-23T11:34:28.156Z,20.05
2018-05-23T11:36:56.263Z,20.16
2018-05-23T11:39:24.287Z,20.47
2018-05-23T11:41:52.303Z,20.53
2018-05-23T11:44:20.423Z,20.53
2018-05-23T11:46:48.441Z,20.69
2018-05-23T11:49:16.452Z,20.63
2018-05-23T11:51:44.449Z,20.53
2018-05-23T11:54:12.443Z,20.73
2018-05-23T11:56:40.468Z,20.68
2018-05-23T11:59:08.459Z,20.54
2018-05-23T12:01:36.474Z,20.57
2018-05-23T12:04:04.479Z,20.66
2018-05-23T12:06:32.500Z,20.70
2018-05-23T12:09:00.519Z,20.57
2018-05-23T12:11:28.506Z,20.55
2018-05-23T12:13:56.496Z,20.53
2018-05-23T12:16:24.531Z,20.58
2018-05-23T12:18:52.563Z,20.85
2018-05-23T12:21:20.583Z,20.90
2018-05-23T12:23:48.939Z,20.91
2018-05-23T12:26:17.024Z,20.77
2018-05-23T12:28:50.895Z,20.89
2018-05-23T12:31:18.937Z,20.92
2018-05-23T12:33:46.932Z,20.91
2018-05-23T12:36:14.947Z,20.86
2018-05-23T12:38:43.180Z,20.72
2018-05-23T12:41:14.292Z,20.71
2018-05-23T12:43:43.135Z,20.70
2018-05-23T12:46:11.416Z,20.63
2018-05-23T12:48:39.813Z,20.73
2018-05-23T12:51:08.173Z,20.30
2018-05-23T12:53:36.867Z,20.58
2018-05-23T12:56:04.886Z,20.40
2018-05-23T12:58:33.160Z,20.50
2018-05-23T13:01:01.183Z,20.50
2018-05-23T13:03:29.212Z,20.68
2018-05-23T13:05:57.220Z,20.73
2018-05-23T13:08:25.228Z,20.67
2018-05-23T13:10:53.459Z,20.54
2018-05-23T13:13:21.593Z,20.15
2018-05-23T13:15:49.923Z,20.18
2018-05-23T13:18:17.932Z,20.49
2018-05-23T13:20:45.972Z,20.42
2018-05-23T13:23:14.291Z,20.90
2018-05-23T13:25:42.556Z,21.11
2018-05-23T13:28:10.564Z,21.49
2018-05-23T13:30:38.598Z,21.07
2018-05-23T13:33:06.614Z,21.16
2018-05-23T13:35:34.634Z,21.33
2018-05-23T13:38:02.916Z,21.91
2018-05-23T13:40:31.198Z,21.95
2018-05-23T13:42:59.204Z,22.19
2018-05-23T13:45:27.532Z,22.19
2018-05-23T13:47:55.545Z,22.53
2018-05-23T13:50:23.545Z,22.77
2018-05-23T13:52:51.847Z,23.08
2018-05-23T13:55:19.847Z,23.24
2018-05-23T13:57:47.877Z,22.91
2018-05-23T14:00:15.880Z,22.03
2018-05-23T14:02:43.891Z,21.72
2018-05-23T14:05:11.892Z,21.71
2018-05-23T14:07:39.969Z,22.30
2018-05-23T14:10:08.540Z,22.22
2018-05-23T14:12:36.844Z,22.62
2018-05-23T14:15:04.860Z,22.84
2018-05-23T14:17:33.116Z,23.11
2018-05-23T14:20:01.130Z,23.30
2018-05-23T14:22:29.149Z,23.50
2018-05-23T14:24:57.834Z,23.45
2018-05-23T14:27:26.110Z,23.35
2018-05-23T14:29:54.115Z,23.23
2018-05-23T14:32:22.143Z,23.41
2018-05-23T14:34:51.039Z,23.56
2018-05-23T14:37:19.063Z,23.50
2018-05-23T14:39:47.071Z,23.65
2018-05-23T14:42:15.093Z,23.74
2018-05-23T14:44:43.100Z,23.79
2018-05-23T14:47:11.117Z,23.54
2018-05-23T14:49:39.135Z,23.83
2018-05-23T14:52:07.152Z,23.75
2018-05-23T14:54:35.151Z,23.87
2018-05-23T14:57:03.426Z,23.93
2018-05-23T14:59:32.287Z,23.91
2018-05-23T15:02:00.313Z,23.84
2018-05-23T15:04:28.335Z,24.02
2018-05-23T15:06:56.348Z,24.17
2018-05-23T15:09:24.348Z,24.27
2018-05-23T15:11:52.408Z,24.24
2018-05-23T15:14:20.449Z,24.30
2018-05-23T15:16:48.397Z,24.36
2018-05-23T15:19:16.451Z,24.26
2018-05-23T15:21:44.468Z,24.38
2018-05-23T15:24:12.693Z,24.38
2018-05-23T15:26:40.679Z,24.44
2018-05-23T15:29:08.712Z,24.36
2018-05-23T15:31:36.720Z,24.40
2018-05-23T15:34:04.913Z,24.58
2018-05-23T15:36:33.186Z,24.43
2018-05-23T15:39:01.355Z,24.60
2018-05-23T15:41:29.647Z,24.75
2018-05-23T15:43:57.680Z,24.68
2018-05-23T15:46:25.670Z,24.69
2018-05-23T15:48:54.176Z,24.59
2018-05-23T15:51:22.163Z,24.79
2018-05-23T15:53:50.303Z,24.79
2018-05-23T15:56:18.380Z,24.79
2018-05-23T15:58:50.044Z,25.07
2018-05-23T16:01:18.139Z,25.17
2018-05-23T16:03:46.151Z,25.11
2018-05-23T16:06:14.174Z,25.30
2018-05-23T16:08:42.378Z,25.38
2018-05-23T16:11:10.374Z,25.38
2018-05-23T16:13:38.423Z,25.46
2018-05-23T16:16:06.424Z,25.48
2018-05-23T16:18:34.475Z,25.06
2018-05-23T16:21:02.507Z,24.98
2018-05-23T16:23:30.541Z,24.78
2018-05-23T16:25:58.551Z,24.50
2018-05-23T16:28:26.691Z,24.06
2018-05-23T16:30:55.273Z,24.04
2018-05-23T16:33:23.820Z,23.95
2018-05-23T16:35:52.124Z,23.91
2018-05-23T16:38:20.160Z,23.98
2018-05-23T16:40:48.155Z,23.89
2018-05-23T16:43:16.172Z,23.92
2018-05-23T16:45:44.191Z,23.79
2018-05-23T16:48:12.280Z,23.76
2018-05-23T16:50:40.329Z,23.62
2018-05-23T16:53:08.612Z,23.56
2018-05-23T16:55:36.643Z,23.46
2018-05-23T16:58:04.963Z,23.36
2018-05-23T17:00:32.975Z,23.40
2018-05-23T17:03:00.988Z,23.49
2018-05-23T17:05:29.183Z,23.49
2018-05-23T17:07:57.165Z,23.46
2018-05-23T17:10:25.312Z,23.36
2018-05-23T17:12:53.319Z,23.31
2018-05-23T17:15:21.346Z,23.31
2018-05-23T17:17:49.516Z,23.22
2018-05-23T17:20:17.547Z,23.08
2018-05-23T17:22:45.565Z,23.03
2018-05-23T17:25:13.909Z,23.06
2018-05-23T17:27:41.945Z,23.01
2018-05-23T17:30:09.987Z,22.98
2018-05-23T17:32:37.991Z,22.87
2018-05-23T17:35:06.032Z,22.77
2018-05-23T17:37:34.059Z,22.80
2018-05-23T17:40:02.109Z,22.70
2018-05-23T17:42:30.113Z,22.84
2018-05-23T17:44:58.135Z,22.84
2018-05-23T17:47:26.153Z,22.75
2018-05-23T17:49:54.193Z,22.79
2018-05-23T17:52:22.164Z,22.78
2018-05-23T17:54:50.215Z,22.81
2018-05-23T17:57:18.221Z,22.83
2018-05-23T17:59:46.237Z,22.71
2018-05-23T18:02:14.247Z,22.77
2018-05-23T18:04:42.259Z,22.74
2018-05-23T18:07:10.843Z,22.66
2018-05-23T18:09:38.891Z,22.82
2018-05-23T18:12:06.940Z,22.86
2018-05-23T18:14:35.020Z,22.81
2018-05-23T18:17:02.942Z,22.81
2018-05-23T18:19:30.974Z,22.65
2018-05-23T18:21:59.585Z,22.62
2018-05-23T18:24:27.608Z,22.50
2018-05-23T18:26:55.637Z,22.32
2018-05-23T18:29:23.755Z,22.32
2018-05-23T18:31:51.668Z,22.13
2018-05-23T18:34:19.681Z,22.30
2018-05-23T18:36:47.689Z,22.47
2018-05-23T18:39:15.694Z,22.49
2018-05-23T18:41:43.700Z,22.45
2018-05-23T18:44:11.712Z,22.45
2018-05-23T18:46:39.741Z,22.39
2018-05-23T18:49:07.757Z,22.46
2018-05-23T18:51:35.792Z,22.28
2018-05-23T18:54:03.830Z,22.13
2018-05-23T18:56:31.863Z,22.07
2018-05-23T18:59:00.383Z,21.97
2018-05-23T19:01:28.407Z,21.83
2018-05-23T19:03:56.400Z,21.99
2018-05-23T19:06:24.481Z,22.00
2018-05-23T19:08:52.487Z,21.99
2018-05-23T19:11:20.528Z,21.95
2018-05-23T19:13:48.732Z,21.87
2018-05-23T19:16:16.700Z,21.86
2018-05-23T19:18:48.307Z,21.67
2018-05-23T19:21:16.364Z,21.66
2018-05-23T19:23:44.529Z,21.63
2018-05-23T19:26:12.560Z,21.46
2018-05-23T19:28:40.576Z,21.33
2018-05-23T19:31:09.512Z,21.29
2018-05-23T19:33:37.536Z,21.30
2018-05-23T19:36:05.571Z,21.26
2018-05-23T19:38:33.571Z,21.01
2018-05-23T19:41:01.598Z,20.89
2018-05-23T19:43:29.713Z,20.77
2018-05-23T19:45:57.707Z,20.71
2018-05-23T19:48:25.737Z,20.66
2018-05-23T19:50:53.739Z,20.57
2018-05-23T19:53:21.752Z,20.59
2018-05-23T19:55:49.971Z,20.47
2018-05-23T19:58:17.986Z,20.54
2018-05-23T20:00:45.983Z,20.43
2018-05-23T20:03:14.316Z,20.41
2018-05-23T20:05:42.343Z,20.33
2018-05-23T20:08:10.367Z,20.25
2018-05-23T20:10:38.376Z,20.35
2018-05-23T20:13:06.434Z,20.19
2018-05-23T20:15:34.447Z,20.04
2018-05-23T20:18:02.636Z,20.04
2018-05-23T20:20:30.644Z,20.00
2018-05-23T20:22:58.657Z,20.01
2018-05-23T20:25:26.679Z,19.99
2018-05-23T20:27:54.701Z,19.82
2018-05-23T20:30:22.694Z,19.75
2018-05-23T20:32:50.719Z,19.64
2018-05-23T20:35:18.782Z,19.46
2018-05-23T20:37:46.748Z,19.35
2018-05-23T20:40:14.883Z,19.41
2018-05-23T20:42:42.913Z,19.25
2018-05-23T20:45:10.921Z,19.29
2018-05-23T20:47:39.018Z,19.21
2018-05-23T20:50:06.950Z,19.18
2018-05-23T20:52:35.044Z,19.12
2018-05-23T20:55:03.027Z,19.11
2018-05-23T20:57:31.345Z,19.20
2018-05-23T20:59:59.344Z,19.16
2018-05-23T21:02:27.391Z,18.94
2018-05-23T21:04:55.413Z,18.89
2018-05-23T21:07:23.440Z,18.89
2018-05-23T21:09:51.437Z,18.73
2018-05-23T21:12:19.437Z,18.74
2018-05-23T21:14:47.480Z,18.73
2018-05-23T21:17:16.124Z,18.55
2018-05-23T21:19:44.451Z,18.52
2018-05-23T21:22:12.496Z,18.54
2018-05-23T21:24:40.488Z,18.49
2018-05-23T21:27:08.526Z,18.51
2018-05-23T21:29:36.540Z,18.57
2018-05-23T21:32:04.532Z,18.53
2018-05-23T21:34:32.679Z,18.48
2018-05-23T21:37:00.579Z,18.55
2018-05-23T21:39:28.606Z,18.40
2018-05-23T21:41:56.608Z,18.36
2018-05-23T21:44:24.719Z,18.31
2018-05-23T21:46:52.728Z,18.23
2018-05-23T21:49:20.751Z,18.17
2018-05-23T21:51:48.762Z,18.09
2018-05-23T21:54:16.803Z,18.16
2018-05-23T21:56:44.813Z,18.21
2018-05-23T21:59:12.856Z,18.09
2018-05-23T22:01:40.876Z,18.00
2018-05-23T22:04:08.920Z,17.96
2018-05-23T22:06:36.954Z,17.94
2018-05-23T22:09:05.888Z,17.93
2018-05-23T22:11:33.937Z,17.90
2018-05-23T22:14:02.091Z,17.80
2018-05-23T22:16:30.109Z,17.79
2018-05-23T22:18:58.137Z,17.90
2018-05-23T22:21:26.141Z,17.79
2018-05-23T22:23:54.176Z,17.74
2018-05-23T22:26:22.186Z,17.69
2018-05-23T22:28:50.380Z,17.70
2018-05-23T22:31:18.392Z,17.69
2018-05-23T22:33:46.415Z,17.73
2018-05-23T22:36:14.540Z,17.70
2018-05-23T22:38:42.568Z,17.73
2018-05-23T22:41:10.588Z,17.70
2018-05-23T22:43:39.211Z,17.57
2018-05-23T22:46:07.222Z,17.48
2018-05-23T22:48:35.281Z,17.50
2018-05-23T22:51:03.259Z,17.41
2018-05-23T22:53:31.291Z,17.42
2018-05-23T22:55:59.308Z,17.50
2018-05-23T22:58:27.386Z,17.44
2018-05-23T23:00:55.385Z,17.31
2018-05-23T23:03:23.415Z,16.96
2018-05-23T23:05:51.647Z,17.07
2018-05-23T23:08:19.680Z,17.04
2018-05-23T23:10:47.895Z,17.03
2018-05-23T23:13:15.939Z,17.04
2018-05-23T23:15:43.968Z,16.96
2018-05-23T23:18:11.978Z,17.01
2018-05-23T23:20:40.175Z,17.08
2018-05-23T23:23:08.799Z,17.11
2018-05-23T23:25:36.821Z,16.99
2018-05-23T23:28:04.851Z,17.07
2018-05-23T23:30:32.870Z,17.15
2018-05-23T23:33:00.886Z,17.09
2018-05-23T23:35:29.087Z,16.91
2018-05-23T23:37:57.572Z,16.88
2018-05-23T23:40:25.764Z,16.91
2018-05-23T23:42:53.773Z,16.97
2018-05-23T23:45:21.787Z,16.97
2018-05-23T23:47:49.799Z,17.10
2018-05-23T23:50:17.819Z,17.10
2018-05-23T23:52:45.895Z,17.07
2018-05-23T23:55:14.089Z,17.07
2018-05-23T23:57:42.391Z,17.04
